Terminal Aerodrome Forecast
Issued by NWS Cleveland, OH

Home | Current Version | Previous Version | Graphics & Text | Print | Product List | Glossary On
Versions: 1 2 3 4 5 6 7 8 9 10 11 12 13 14 15 16 17 18 19 20 21 22 23 24
000
FTUS41 KCLE 161000 AAB
TAFTOL
TAF AMD
KTOL 161017Z 1610/1706 32004KT P6SM OVC022
      TEMPO 1610/1613 4SM BR SCT022
     FM161500 34005KT P6SM SCT012 BKN035
     FM161600 34006KT 6SM BR SCT025 BKN045
     FM161800 33006KT P6SM SCT045
     FM170200 26003KT P6SM SKC=

USA.gov is the U.S. government's official web portal to all federal, state and local government web resources and services.